Ashley, Pennsylvania
Current Conditions -  °F | °C
As of 6:54 PM on Wednesday 28 Jan 2015 (Local Time) from KAVP Reporting Station
Clear Clear  
Wind Chill: 12°   Ceiling: Unl
Heat Index: 24°   Visibility: 10mi
Dew Point:   Wind: 14mph
Humidity: 42%   Direction: 350°N
Pressure: 30.24"   Gusts: 26mph
Location:  41.1921°N, 75.9213°W
Report Text: KAVP 282354Z AUTO 35012G23KT 10SM CLR M04/M16 A3024 RMK AO2 SLP253 60000 T10441156 11017 21050 53030 $
Loading
Personal Weather Stations






























Interactive Weather Map New forecast layout! Learn more

10-Day Weather Forecast

Advertisements
Track Severe Weather on mobile